Time;durP1;ratioP1;P1;durP2;ratioP2;P2;SDS_P1;SDS_P2;PMS_P1;PMS_P2;Temp;Humidity;BMP_temperature;BMP_pressure;BME280_temperature;BME280_humidity;BME280_pressure;Samples;Min_cycle;Max_cycle;Signal;HPM_P1;HPM_P2
2021/03/01 00:00:14;;;;;;;39.77;20.00;;;5.00;99.90;;;;;;5077102;28;20916;-76
2021/03/01 00:02:42;;;;;;;39.43;20.07;;;5.00;99.90;;;;;;5090163;28;20664;-76
2021/03/01 00:05:10;;;;;;;40.93;20.37;;;5.00;99.90;;;;;;5082471;28;20689;-76
2021/03/01 00:07:36;;;;;;;42.63;20.80;;;5.00;99.90;;;;;;5084117;28;20668;-75
2021/03/01 00:10:04;;;;;;;36.47;18.67;;;5.10;99.90;;;;;;5083386;28;20197;-76
2021/03/01 00:12:30;;;;;;;36.27;19.00;;;5.00;99.90;;;;;;5082354;28;20247;-75
2021/03/01 00:14:56;;;;;;;36.53;18.67;;;5.10;99.90;;;;;;5084148;28;20212;-75
2021/03/01 00:17:23;;;;;;;39.07;19.20;;;5.00;99.90;;;;;;5083768;28;20202;-75
2021/03/01 00:19:50;;;;;;;40.83;19.37;;;5.00;99.90;;;;;;5082237;28;20191;-75
2021/03/01 00:22:16;;;;;;;35.50;18.47;;;5.00;99.90;;;;;;5083243;28;20341;-75
2021/03/01 00:24:43;;;;;;;30.17;17.00;;;5.00;99.90;;;;;;5083414;28;20709;-75
2021/03/01 00:27:09;;;;;;;32.97;16.97;;;5.00;99.90;;;;;;5082286;28;20243;-76
2021/03/01 00:29:35;;;;;;;38.87;18.10;;;5.00;99.90;;;;;;5073986;28;20219;-75
2021/03/01 00:32:02;;;;;;;33.97;17.83;;;4.90;99.90;;;;;;5073357;28;20215;-75
2021/03/01 00:34:28;;;;;;;39.53;18.23;;;4.90;99.90;;;;;;5073441;28;20260;-75
2021/03/01 00:36:55;;;;;;;35.27;17.63;;;4.80;99.90;;;;;;5073348;28;20662;-76
2021/03/01 00:39:22;;;;;;;37.67;18.27;;;4.90;99.90;;;;;;5073296;28;20782;-75
2021/03/01 00:41:48;;;;;;;35.37;18.20;;;4.90;99.90;;;;;;5073672;28;20205;-76
2021/03/01 00:44:14;;;;;;;37.03;18.60;;;5.00;99.90;;;;;;5073362;28;20229;-76
2021/03/01 00:46:41;;;;;;;37.87;18.43;;;5.00;99.90;;;;;;5073341;28;20196;-76
2021/03/01 00:49:07;;;;;;;35.53;18.60;;;4.90;99.90;;;;;;5073209;28;20570;-75
2021/03/01 00:51:33;;;;;;;39.20;18.57;;;4.90;99.90;;;;;;5073058;28;20205;-75
2021/03/01 00:54:01;;;;;;;36.30;18.27;;;4.80;99.90;;;;;;5073435;28;20566;-75
2021/03/01 00:56:27;;;;;;;35.97;17.87;;;4.70;99.90;;;;;;5073341;28;20244;-75
2021/03/01 00:58:53;;;;;;;36.20;18.73;;;4.60;99.90;;;;;;5073185;28;20204;-75
2021/03/01 01:01:20;;;;;;;38.40;19.27;;;4.70;99.90;;;;;;5073311;28;20799;-75
2021/03/01 01:03:46;;;;;;;41.93;19.47;;;4.70;99.90;;;;;;5072986;28;20307;-75
2021/03/01 01:06:12;;;;;;;40.70;19.63;;;4.70;99.90;;;;;;5072963;28;20576;-75
2021/03/01 01:08:38;;;;;;;41.50;19.53;;;4.70;99.90;;;;;;5073149;28;20201;-76
2021/03/01 01:11:06;;;;;;;39.00;19.27;;;4.90;99.90;;;;;;5073284;28;20200;-75
2021/03/01 01:13:32;;;;;;;37.30;19.57;;;4.90;99.90;;;;;;5072915;28;20193;-75
2021/03/01 01:15:59;;;;;;;38.50;20.47;;;4.80;99.90;;;;;;5073270;28;20284;-75
2021/03/01 01:18:26;;;;;;;40.53;19.57;;;4.80;99.90;;;;;;5073009;28;20196;-75
2021/03/01 01:20:52;;;;;;;40.40;19.30;;;4.80;99.90;;;;;;5072939;28;20559;-77
2021/03/01 01:23:19;;;;;;;38.37;20.73;;;4.70;99.90;;;;;;5073043;28;20226;-77
2021/03/01 01:25:45;;;;;;;41.23;20.27;;;4.60;99.90;;;;;;5072963;28;20214;-77
2021/03/01 01:28:12;;;;;;;41.30;19.93;;;4.70;99.90;;;;;;5073002;28;20209;-75
2021/03/01 01:30:38;;;;;;;44.43;19.53;;;4.70;99.90;;;;;;5073011;28;20204;-74
2021/03/01 01:33:05;;;;;;;45.43;20.80;;;4.70;99.90;;;;;;5072925;28;20197;-75
2021/03/01 01:35:31;;;;;;;43.23;20.50;;;4.60;99.90;;;;;;5077000;28;20211;-75
2021/03/01 01:37:58;;;;;;;44.33;20.17;;;4.60;99.90;;;;;;5077101;28;20208;-75
2021/03/01 01:40:24;;;;;;;50.57;23.10;;;4.60;99.90;;;;;;5076922;28;20566;-75
2021/03/01 01:42:52;;;;;;;50.87;23.13;;;4.60;99.90;;;;;;5076975;28;20637;-75
2021/03/01 01:45:21;;;;;;;56.43;24.50;;;4.60;99.90;;;;;;5076855;28;20237;-75
2021/03/01 01:47:49;;;;;;;56.10;24.83;;;4.50;99.90;;;;;;5076689;28;20682;-75
2021/03/01 01:50:16;;;;;;;52.90;23.80;;;4.50;99.90;;;;;;5077129;28;20292;-75
2021/03/01 01:52:43;;;;;;;56.73;25.47;;;4.40;99.90;;;;;;5077226;28;20210;-75
2021/03/01 01:55:11;;;;;;;57.63;24.73;;;4.40;99.90;;;;;;5077171;28;20235;-75
2021/03/01 01:57:37;;;;;;;55.73;24.87;;;4.40;99.90;;;;;;5076825;28;20235;-75
2021/03/01 02:00:07;;;;;;;55.57;25.50;;;4.20;99.90;;;;;;5076428;28;20191;-75
2021/03/01 02:02:35;;;;;;;57.47;25.00;;;4.20;99.90;;;;;;5076328;28;20200;-75
2021/03/01 02:05:05;;;;;;;56.57;25.73;;;4.20;99.90;;;;;;5076493;28;20221;-75
2021/03/01 02:07:35;;;;;;;54.57;26.57;;;4.20;99.90;;;;;;5076478;28;20555;-75
2021/03/01 02:10:10;;;;;;;55.20;26.03;;;4.10;99.90;;;;;;5076311;28;20204;-75
2021/03/01 02:12:54;;;;;;;57.87;26.23;;;4.00;99.90;;;;;;5076313;28;20231;-75
2021/03/01 02:15:27;;;;;;;59.97;27.37;;;4.00;99.90;;;;;;5076174;28;20220;-75
2021/03/01 02:17:55;;;;;;;65.80;28.67;;;4.00;99.90;;;;;;5076367;28;20201;-75
2021/03/01 02:20:21;;;;;;;64.20;27.23;;;3.90;99.90;;;;;;5076187;28;20671;-75
2021/03/01 02:22:48;;;;;;;54.60;27.17;;;3.90;99.90;;;;;;5076048;28;20201;-75
2021/03/01 02:25:18;;;;;;;53.63;25.53;;;3.90;99.90;;;;;;5076149;28;20287;-75
2021/03/01 02:27:49;;;;;;;57.20;27.37;;;3.90;99.90;;;;;;5076306;28;20205;-75
2021/03/01 02:30:22;;;;;;;56.63;27.80;;;3.90;99.90;;;;;;5075911;28;20205;-75
2021/03/01 02:32:52;;;;;;;57.40;25.60;;;3.90;99.90;;;;;;5076201;28;20576;-75
2021/03/01 02:35:21;;;;;;;65.03;26.77;;;3.90;99.90;;;;;;5075919;28;20582;-75
2021/03/01 02:37:49;;;;;;;59.37;26.47;;;4.00;99.90;;;;;;5075900;28;20566;-75
2021/03/01 02:40:19;;;;;;;66.77;27.87;;;4.00;99.90;;;;;;5075995;28;20255;-75
2021/03/01 02:42:47;;;;;;;60.40;27.70;;;4.10;99.90;;;;;;5075918;28;20204;-75
2021/03/01 02:45:15;;;;;;;54.13;27.20;;;4.10;99.90;;;;;;5075212;28;20209;-75
2021/03/01 02:47:43;;;;;;;53.17;25.60;;;4.00;99.90;;;;;;5075818;28;20688;-75
2021/03/01 02:50:10;;;;;;;58.90;25.90;;;3.90;99.90;;;;;;5075750;28;20208;-75
2021/03/01 02:52:38;;;;;;;54.60;26.60;;;3.80;99.90;;;;;;5075519;28;20207;-75
2021/03/01 02:55:08;;;;;;;54.60;25.57;;;3.70;99.90;;;;;;5075682;28;20193;-76
2021/03/01 02:57:35;;;;;;;57.77;27.13;;;3.80;99.90;;;;;;5075451;28;20202;-76
2021/03/01 03:00:05;;;;;;;63.93;27.13;;;3.80;99.90;;;;;;5075354;28;20666;-75
2021/03/01 03:02:33;;;;;;;64.60;27.90;;;3.80;99.90;;;;;;5075466;28;20206;-75
2021/03/01 03:05:01;;;;;;;64.10;27.17;;;3.80;99.90;;;;;;5075283;28;20260;-75
2021/03/01 03:07:29;;;;;;;62.57;27.87;;;3.80;99.90;;;;;;5075460;28;20669;-75
2021/03/01 03:09:55;;;;;;;58.33;26.47;;;3.80;99.90;;;;;;5075341;28;20201;-75
2021/03/01 03:12:25;;;;;;;66.77;28.70;;;3.80;99.90;;;;;;5075102;28;20306;-75
2021/03/01 03:14:53;;;;;;;69.87;29.27;;;3.80;99.90;;;;;;5075239;28;20213;-75
2021/03/01 03:17:21;;;;;;;62.77;29.47;;;3.70;99.90;;;;;;5075207;28;20197;-75
2021/03/01 03:19:47;;;;;;;71.43;32.17;;;3.60;99.90;;;;;;5075315;28;20300;-75
2021/03/01 03:22:15;;;;;;;69.33;31.37;;;3.60;99.90;;;;;;5075022;28;20666;-75
2021/03/01 03:24:41;;;;;;;68.13;30.03;;;3.50;99.90;;;;;;5073908;28;20225;-75
2021/03/01 03:27:08;;;;;;;70.00;31.07;;;3.40;99.90;;;;;;5075153;28;20204;-75
2021/03/01 03:29:36;;;;;;;69.07;30.20;;;3.40;99.90;;;;;;5074791;28;20199;-75
2021/03/01 03:32:02;;;;;;;69.90;30.13;;;3.30;99.90;;;;;;5074791;28;20665;-75
2021/03/01 03:34:29;;;;;;;61.30;29.80;;;3.30;99.90;;;;;;5075255;28;20201;-75
2021/03/01 03:37:03;;;;;;;69.23;29.03;;;3.30;99.90;;;;;;5075007;28;20197;-75
2021/03/01 03:39:33;;;;;;;72.03;30.20;;;3.30;99.90;;;;;;5074885;28;20201;-75
2021/03/01 03:42:00;;;;;;;74.10;29.33;;;3.30;99.90;;;;;;5074617;28;20208;-75
2021/03/01 03:44:31;;;;;;;72.97;30.50;;;3.30;99.90;;;;;;5074412;28;20221;-75
2021/03/01 03:46:59;;;;;;;70.50;29.80;;;3.40;99.90;;;;;;5074800;28;20199;-75
2021/03/01 03:49:28;;;;;;;69.77;30.57;;;3.40;99.90;;;;;;5074747;28;20223;-75
2021/03/01 03:51:58;;;;;;;72.83;30.73;;;3.20;99.90;;;;;;5074536;28;20200;-75
2021/03/01 03:54:28;;;;;;;80.90;31.17;;;3.20;99.90;;;;;;5074451;28;20193;-75
2021/03/01 03:56:57;;;;;;;76.23;29.30;;;3.20;99.90;;;;;;5073681;28;20250;-75
2021/03/01 03:59:28;;;;;;;77.97;30.70;;;3.10;99.90;;;;;;5074074;28;20209;-75
2021/03/01 04:01:56;;;;;;;72.07;29.30;;;3.10;99.90;;;;;;5074206;28;20211;-75
2021/03/01 04:04:25;;;;;;;76.30;30.07;;;2.90;99.90;;;;;;5074117;28;20225;-75
2021/03/01 04:06:52;;;;;;;82.00;31.63;;;2.90;99.90;;;;;;5074368;28;20246;-75
2021/03/01 04:09:22;;;;;;;82.40;31.40;;;2.90;99.90;;;;;;5073926;28;20632;-75
2021/03/01 04:11:50;;;;;;;101.07;33.47;;;2.90;99.90;;;;;;5074058;28;20218;-75
2021/03/01 04:14:19;;;;;;;121.40;35.90;;;2.80;99.90;;;;;;5074287;28;20211;-75
2021/03/01 04:16:48;;;;;;;146.37;34.60;;;2.80;99.90;;;;;;5073821;28;20196;-75
2021/03/01 04:19:16;;;;;;;204.57;37.83;;;2.80;99.90;;;;;;5073898;28;20203;-75
2021/03/01 04:21:46;;;;;;;160.43;35.57;;;2.80;99.90;;;;;;5073835;28;20199;-75
2021/03/01 04:24:14;;;;;;;356.10;41.43;;;2.80;99.90;;;;;;5073735;28;20365;-75
2021/03/01 04:26:43;;;;;;;411.63;44.43;;;2.70;99.90;;;;;;5073989;28;20207;-75
2021/03/01 04:29:09;;;;;;;486.70;42.87;;;2.70;99.90;;;;;;5073901;28;20200;-75
2021/03/01 04:31:37;;;;;;;610.00;49.10;;;2.70;99.90;;;;;;5073819;28;20200;-75
2021/03/01 04:34:04;;;;;;;594.53;49.10;;;2.70;99.90;;;;;;5073722;28;20204;-75
2021/03/01 04:36:32;;;;;;;461.10;45.70;;;2.60;99.90;;;;;;5073646;28;20196;-75
2021/03/01 04:38:59;;;;;;;532.53;49.30;;;2.60;99.90;;;;;;5073254;28;20208;-75
2021/03/01 04:41:26;;;;;;;434.73;44.30;;;2.70;99.90;;;;;;5073449;28;20734;-75
2021/03/01 04:43:54;;;;;;;397.97;46.33;;;2.70;99.90;;;;;;5073322;28;20220;-75
2021/03/01 04:46:20;;;;;;;439.27;49.10;;;2.70;99.90;;;;;;5073520;28;20203;-75
2021/03/01 04:48:48;;;;;;;354.23;44.47;;;2.70;99.90;;;;;;5073592;28;20206;-75
2021/03/01 04:51:15;;;;;;;381.03;47.40;;;2.70;99.90;;;;;;5073199;28;20233;-75
2021/03/01 04:53:42;;;;;;;402.57;49.17;;;2.70;99.90;;;;;;5073701;28;20198;-75
2021/03/01 04:56:10;;;;;;;288.10;46.20;;;2.70;99.90;;;;;;5073180;28;20200;-74
2021/03/01 04:58:37;;;;;;;245.67;45.57;;;2.70;99.90;;;;;;5073148;28;20196;-75
2021/03/01 05:01:06;;;;;;;359.13;48.73;;;2.70;99.90;;;;;;5073307;28;20204;-75
2021/03/01 05:03:34;;;;;;;230.10;45.63;;;2.70;99.90;;;;;;5073153;28;20220;-75
2021/03/01 05:06:01;;;;;;;177.87;45.33;;;2.80;99.90;;;;;;5072934;28;20222;-75
2021/03/01 05:08:29;;;;;;;167.90;45.63;;;2.90;99.90;;;;;;5073027;28;20572;-75
2021/03/01 05:10:57;;;;;;;180.80;45.70;;;3.00;99.90;;;;;;5073288;28;20576;-75
2021/03/01 05:13:24;;;;;;;156.93;44.13;;;3.10;99.90;;;;;;5073202;28;20651;-75
2021/03/01 05:15:51;;;;;;;157.47;45.87;;;3.10;99.90;;;;;;5073388;28;20242;-75
2021/03/01 05:18:17;;;;;;;169.00;46.73;;;3.20;99.90;;;;;;5072848;28;20569;-75
2021/03/01 05:20:44;;;;;;;263.20;73.63;;;3.30;99.90;;;;;;5072300;28;20448;-75
2021/03/01 05:23:10;;;;;;;216.50;54.73;;;3.40;99.90;;;;;;5073025;28;20294;-76
2021/03/01 05:25:36;;;;;;;179.23;51.33;;;3.40;99.90;;;;;;5073281;28;20199;-75
2021/03/01 05:28:03;;;;;;;220.93;50.33;;;3.40;99.90;;;;;;5073061;28;20208;-75
2021/03/01 05:30:30;;;;;;;246.17;49.73;;;3.40;99.90;;;;;;5073045;28;20205;-75
2021/03/01 05:32:56;;;;;;;342.93;50.87;;;3.40;99.90;;;;;;5072915;28;20311;-75
2021/03/01 05:35:23;;;;;;;443.80;54.73;;;3.40;99.90;;;;;;5071655;28;20216;-75
2021/03/01 05:37:49;;;;;;;478.20;53.67;;;3.50;99.90;;;;;;5073024;28;20199;-75
2021/03/01 05:40:16;;;;;;;440.87;53.60;;;3.40;99.90;;;;;;5072556;28;20201;-75
2021/03/01 05:42:44;;;;;;;421.03;53.00;;;3.30;99.90;;;;;;5052774;28;20301;-75
2021/03/01 05:45:11;;;;;;;393.47;51.70;;;3.30;99.90;;;;;;5059655;28;20299;-75
2021/03/01 05:47:39;;;;;;;402.33;48.13;;;3.30;99.90;;;;;;5072722;28;20206;-77
2021/03/01 05:50:08;;;;;;;467.87;53.43;;;3.20;99.90;;;;;;5072694;28;20212;-75
2021/03/01 05:52:36;;;;;;;365.27;47.33;;;3.20;99.90;;;;;;5069628;28;20197;-75
2021/03/01 05:55:04;;;;;;;382.07;50.70;;;3.10;99.90;;;;;;5072626;28;20196;-75
2021/03/01 05:57:31;;;;;;;397.83;52.53;;;3.00;99.90;;;;;;5072193;28;20201;-74
2021/03/01 05:59:58;;;;;;;350.43;49.47;;;3.00;99.90;;;;;;5071118;28;20219;-75
2021/03/01 06:02:25;;;;;;;417.43;53.80;;;3.00;99.90;;;;;;5072331;28;20207;-74
2021/03/01 06:04:53;;;;;;;304.00;46.03;;;3.00;99.90;;;;;;5072674;28;20229;-74
2021/03/01 06:07:20;;;;;;;260.53;46.43;;;2.90;99.90;;;;;;5090950;28;20200;-75
2021/03/01 06:09:46;;;;;;;352.83;50.73;;;2.80;99.90;;;;;;5079931;28;20201;-74
2021/03/01 06:12:12;;;;;;;296.63;49.13;;;2.80;99.90;;;;;;5082563;28;20701;-74
2021/03/01 06:14:39;;;;;;;288.70;51.17;;;2.80;99.90;;;;;;5073362;28;20212;-75
2021/03/01 06:17:10;;;;;;;306.33;49.07;;;2.80;99.90;;;;;;5071694;28;20215;-74
2021/03/01 06:19:47;;;;;;;272.27;43.47;;;2.90;99.90;;;;;;5071645;28;20204;-75
2021/03/01 06:22:15;;;;;;;323.27;51.73;;;2.90;99.90;;;;;;5072592;28;20672;-74
2021/03/01 06:24:42;;;;;;;446.63;53.63;;;3.00;99.90;;;;;;5075379;28;20217;-74
2021/03/01 06:27:10;;;;;;;454.40;58.20;;;3.00;99.90;;;;;;5075438;28;20212;-75
2021/03/01 06:30:04;;;;;;;397.83;56.07;;;3.00;99.90;;;;;;5076052;28;20196;-75
2021/03/01 06:32:31;;;;;;;434.83;59.27;;;3.00;99.90;;;;;;5074836;28;20684;-74
2021/03/01 06:34:57;;;;;;;430.33;57.60;;;3.10;99.90;;;;;;5078545;28;20204;-75
2021/03/01 06:37:24;;;;;;;436.37;55.70;;;3.10;99.90;;;;;;5089755;28;20660;-75
2021/03/01 06:39:52;;;;;;;373.77;55.53;;;3.20;99.90;;;;;;5083300;28;20212;-76
2021/03/01 06:42:29;;;;;;;355.93;53.73;;;3.20;99.90;;;;;;5086168;28;20252;-75
2021/03/01 06:45:15;;;;;;;467.53;58.83;;;3.20;99.90;;;;;;5086180;28;20220;-76
2021/03/01 06:47:52;;;;;;;302.63;53.63;;;3.30;99.90;;;;;;5076906;28;20201;-76
2021/03/01 06:50:32;;;;;;;385.80;57.77;;;3.20;99.90;;;;;;5064756;28;20215;-76
2021/03/01 06:53:01;;;;;;;416.60;59.33;;;3.30;99.90;;;;;;5075404;28;20715;-76
2021/03/01 06:55:29;;;;;;;397.87;56.80;;;3.30;99.90;;;;;;5079454;28;20200;-76
2021/03/01 06:57:55;;;;;;;461.10;62.07;;;3.40;99.90;;;;;;5070657;28;20205;-76
2021/03/01 07:00:27;;;;;;;397.77;59.43;;;3.30;99.90;;;;;;5071210;28;20215;-76
2021/03/01 07:02:55;;;;;;;302.40;54.20;;;3.40;99.90;;;;;;5075579;28;20204;-75
2021/03/01 07:05:22;;;;;;;356.83;57.93;;;3.40;99.90;;;;;;5067205;28;20237;-78
2021/03/01 07:07:48;;;;;;;352.37;57.33;;;3.30;99.90;;;;;;5074046;28;20665;-75
2021/03/01 07:10:15;;;;;;;302.07;54.93;;;3.40;99.90;;;;;;5074582;28;20288;-75
2021/03/01 07:12:43;;;;;;;338.17;58.67;;;3.50;99.90;;;;;;5075100;28;20201;-75
2021/03/01 07:15:11;;;;;;;341.83;57.77;;;3.60;99.90;;;;;;5074819;28;20226;-75
2021/03/01 07:17:40;;;;;;;380.00;58.63;;;3.70;99.90;;;;;;5074623;28;20204;-76
2021/03/01 07:20:10;;;;;;;300.70;57.07;;;3.70;99.90;;;;;;5074971;28;20343;-75
2021/03/01 07:22:39;;;;;;;294.47;56.40;;;3.80;99.90;;;;;;5075149;28;20193;-76
2021/03/01 07:25:07;;;;;;;284.47;55.47;;;3.80;99.90;;;;;;5066786;28;20225;-75
2021/03/01 07:27:38;;;;;;;294.70;55.47;;;3.70;99.90;;;;;;5067997;28;20202;-76
2021/03/01 07:30:06;;;;;;;281.73;55.20;;;3.70;99.90;;;;;;5075123;28;20216;-75
2021/03/01 07:32:34;;;;;;;294.33;53.87;;;3.70;99.90;;;;;;5074397;28;20199;-76
2021/03/01 07:35:01;;;;;;;262.97;56.10;;;3.70;99.90;;;;;;5074397;28;20208;-75
2021/03/01 07:37:28;;;;;;;293.73;57.47;;;3.70;99.90;;;;;;5074445;28;20216;-75
2021/03/01 07:39:54;;;;;;;263.90;54.23;;;3.70;99.90;;;;;;5073706;28;20220;-76
2021/03/01 07:42:22;;;;;;;261.10;55.20;;;3.70;99.90;;;;;;5074418;28;20200;-76
2021/03/01 07:44:53;;;;;;;271.37;55.10;;;3.70;99.90;;;;;;5073518;28;20287;-76
2021/03/01 07:47:26;;;;;;;256.83;53.80;;;3.70;99.90;;;;;;5074226;28;20199;-75
2021/03/01 07:49:52;;;;;;;241.53;51.63;;;3.80;99.90;;;;;;5073705;28;20204;-75
2021/03/01 07:52:36;;;;;;;249.60;51.90;;;3.90;99.90;;;;;;5074083;28;20684;-76
2021/03/01 07:55:06;;;;;;;244.27;53.03;;;4.00;99.90;;;;;;5074526;28;20200;-75
2021/03/01 07:57:33;;;;;;;258.70;54.63;;;4.00;99.90;;;;;;5074104;28;20336;-76
2021/03/01 08:00:20;;;;;;;226.60;48.87;;;4.00;99.90;;;;;;5074030;28;20208;-75
2021/03/01 08:02:46;;;;;;;209.77;51.67;;;4.00;99.90;;;;;;5073640;28;20188;-76
2021/03/01 08:05:22;;;;;;;248.43;53.03;;;4.00;99.90;;;;;;5073369;28;20225;-75
2021/03/01 08:07:49;;;;;;;219.07;49.80;;;4.00;99.90;;;;;;5073640;28;20195;-75
2021/03/01 08:10:19;;;;;;;190.63;45.93;;;4.00;99.90;;;;;;5073767;28;20200;-75
2021/03/01 08:13:02;;;;;;;190.13;44.63;;;4.10;99.90;;;;;;5073344;28;20197;-75
2021/03/01 08:15:38;;;;;;;186.37;47.10;;;4.20;99.90;;;;;;5072821;28;20209;-75
2021/03/01 08:18:06;;;;;;;192.10;46.77;;;4.20;99.90;;;;;;5073248;28;20725;-75
2021/03/01 08:20:43;;;;;;;190.17;46.37;;;4.20;99.90;;;;;;5073580;28;20247;-75
2021/03/01 08:23:18;;;;;;;220.70;48.37;;;4.20;99.90;;;;;;5073306;28;20695;-75
2021/03/01 08:25:56;;;;;;;225.38;59.70;;;4.20;99.90;;;;;;5073130;28;20525;-75
2021/03/01 08:28:44;;;;;;;191.00;46.83;;;4.20;99.90;;;;;;5073072;28;20197;-75
2021/03/01 08:31:32;;;;;;;177.23;42.37;;;4.10;99.90;;;;;;5073647;28;20197;-75
2021/03/01 08:34:26;;;;;;;187.67;45.23;;;3.90;99.90;;;;;;5073144;28;20192;-75
2021/03/01 08:36:53;;;;;;;189.27;46.30;;;4.00;99.90;;;;;;5072950;28;20646;-76
2021/03/01 08:39:57;;;;;;;192.27;46.67;;;4.20;99.90;;;;;;5073364;28;20204;-75
2021/03/01 08:42:42;;;;;;;181.27;41.53;;;4.20;99.90;;;;;;5073421;28;20189;-75
2021/03/01 08:45:09;;;;;;;183.43;46.80;;;4.30;99.90;;;;;;5072380;28;20225;-76
2021/03/01 08:47:47;;;;;;;180.83;45.90;;;4.20;99.90;;;;;;5073642;28;20299;-76
2021/03/01 08:50:14;;;;;;;183.07;44.30;;;4.30;99.90;;;;;;5073382;28;20261;-76
2021/03/01 08:52:47;;;;;;;190.70;47.53;;;4.30;99.90;;;;;;5073259;28;20218;-76
2021/03/01 08:55:15;;;;;;;162.93;42.90;;;4.30;99.90;;;;;;5072661;28;20743;-76
2021/03/01 08:57:55;;;;;;;182.00;44.03;;;4.40;99.90;;;;;;5073194;28;20291;-76
2021/03/01 09:00:22;;;;;;;149.70;42.03;;;4.50;99.90;;;;;;5073489;28;20203;-76
2021/03/01 09:02:50;;;;;;;151.83;42.20;;;4.50;99.90;;;;;;5072831;28;20201;-76
2021/03/01 09:05:17;;;;;;;151.07;41.23;;;4.30;99.90;;;;;;5072545;28;20220;-75
2021/03/01 09:07:44;;;;;;;159.13;42.60;;;4.30;99.90;;;;;;5072869;28;20763;-76
2021/03/01 09:10:11;;;;;;;162.10;43.27;;;4.30;99.90;;;;;;5073136;28;20205;-76
2021/03/01 09:12:38;;;;;;;143.77;39.77;;;4.40;99.90;;;;;;5073295;28;20205;-76
2021/03/01 09:15:06;;;;;;;142.63;41.90;;;4.50;99.90;;;;;;5072760;28;20697;-76
2021/03/01 09:17:32;;;;;;;143.47;41.57;;;4.70;99.90;;;;;;5052866;28;20200;-76
2021/03/01 09:19:59;;;;;;;140.03;40.17;;;4.80;99.90;;;;;;5052576;28;20200;-75
2021/03/01 09:22:26;;;;;;;134.33;40.40;;;5.10;99.90;;;;;;5052476;28;20207;-75
2021/03/01 09:24:52;;;;;;;144.33;39.50;;;5.20;99.90;;;;;;5071511;28;20307;-76
2021/03/01 09:27:31;;;;;;;136.83;39.00;;;5.20;99.90;;;;;;5072533;28;20252;-76
2021/03/01 09:30:01;;;;;;;129.40;39.00;;;5.20;99.90;;;;;;5072763;28;20200;-76
2021/03/01 09:32:27;;;;;;;122.43;36.40;;;5.20;99.90;;;;;;5072657;28;20662;-76
2021/03/01 09:34:54;;;;;;;123.60;36.30;;;5.20;99.90;;;;;;5072826;28;20200;-76
2021/03/01 09:37:23;;;;;;;113.17;36.10;;;5.10;99.90;;;;;;5072805;28;20199;-76
2021/03/01 09:39:49;;;;;;;106.60;34.63;;;5.20;99.90;;;;;;5072687;28;20559;-76
2021/03/01 09:42:17;;;;;;;108.30;34.67;;;5.40;99.90;;;;;;5072623;28;20207;-76
2021/03/01 09:44:45;;;;;;;105.77;34.40;;;5.60;99.90;;;;;;5072391;28;20252;-76
2021/03/01 09:47:12;;;;;;;104.30;34.07;;;5.80;99.90;;;;;;5072796;28;20239;-75
2021/03/01 09:49:41;;;;;;;101.17;34.97;;;6.10;99.90;;;;;;5072134;28;20203;-76
2021/03/01 09:52:08;;;;;;;96.60;34.10;;;6.30;99.90;;;;;;5072654;28;20208;-76
2021/03/01 09:54:37;;;;;;;97.63;34.13;;;6.60;99.90;;;;;;5073371;28;20548;-76
2021/03/01 09:57:06;;;;;;;95.93;32.97;;;6.70;99.90;;;;;;5076529;28;20207;-76
2021/03/01 09:59:34;;;;;;;90.87;32.20;;;6.70;99.90;;;;;;5076045;28;20199;-75
2021/03/01 10:02:10;;;;;;;90.07;32.47;;;6.90;99.90;;;;;;5076053;28;21177;-76
2021/03/01 10:04:37;;;;;;;95.33;34.47;;;7.00;99.90;;;;;;5076057;28;20216;-75
2021/03/01 10:07:16;;;;;;;97.57;34.00;;;7.20;99.90;;;;;;5076326;28;20237;-76
2021/03/01 10:09:43;;;;;;;94.03;32.83;;;7.40;99.90;;;;;;5076440;28;20280;-75
2021/03/01 10:12:10;;;;;;;86.97;32.10;;;7.40;99.90;;;;;;5076285;28;20207;-76
2021/03/01 10:14:36;;;;;;;88.77;32.53;;;7.60;99.90;;;;;;5075864;28;20742;-76
2021/03/01 10:17:14;;;;;;;84.23;30.50;;;7.60;99.90;;;;;;5076062;28;20273;-76
2021/03/01 10:19:41;;;;;;;81.10;31.10;;;7.70;99.90;;;;;;5055975;28;20230;-76
2021/03/01 10:22:07;;;;;;;71.47;27.93;;;7.90;99.90;;;;;;5056223;28;20214;-75
2021/03/01 10:24:43;;;;;;;78.13;29.13;;;8.20;99.90;;;;;;5065501;28;20270;-76
2021/03/01 10:27:10;;;;;;;74.17;27.90;;;8.30;99.90;;;;;;5076042;28;20193;-75
2021/03/01 10:29:39;;;;;;;73.90;28.10;;;9.00;99.90;;;;;;5055747;28;20237;-76
2021/03/01 10:32:18;;;;;;;74.40;27.07;;;9.50;99.90;;;;;;5055928;28;20208;-75
2021/03/01 10:34:44;;;;;;;81.37;29.10;;;9.90;99.90;;;;;;5055881;28;20629;-76
2021/03/01 10:37:13;;;;;;;76.10;29.90;;;10.20;99.90;;;;;;5067770;28;20204;-76
2021/03/01 10:39:42;;;;;;;71.00;28.30;;;9.80;99.90;;;;;;5075177;28;20683;-76
2021/03/01 10:42:12;;;;;;;75.57;30.13;;;9.10;99.90;;;;;;5075619;28;20215;-75
2021/03/01 10:44:41;;;;;;;79.53;30.10;;;8.80;99.90;;;;;;5075249;28;20225;-76
2021/03/01 10:47:15;;;;;;;80.80;31.13;;;8.50;99.90;;;;;;5070109;28;20203;-75
2021/03/01 10:49:43;;;;;;;79.53;30.03;;;8.40;99.90;;;;;;5075676;28;20534;-76
2021/03/01 10:52:10;;;;;;;80.17;29.90;;;8.40;99.90;;;;;;5075202;28;20204;-76
2021/03/01 10:54:37;;;;;;;77.00;29.43;;;8.30;99.90;;;;;;5075634;28;20201;-76
2021/03/01 10:57:04;;;;;;;79.73;28.77;;;8.20;99.90;;;;;;5075216;28;20570;-76
2021/03/01 10:59:31;;;;;;;79.87;29.83;;;8.20;99.90;;;;;;5075389;28;20203;-76
2021/03/01 11:01:58;;;;;;;77.30;28.50;;;8.90;99.90;;;;;;5078735;28;20196;-75
2021/03/01 11:04:24;;;;;;;75.93;29.23;;;9.20;99.90;;;;;;5074405;28;20646;-76
2021/03/01 11:06:51;;;;;;;80.60;28.80;;;9.60;99.90;;;;;;5074298;28;20683;-75
2021/03/01 11:09:19;;;;;;;82.23;31.17;;;9.70;99.90;;;;;;5080998;28;20296;-75
2021/03/01 11:11:47;;;;;;;83.07;31.20;;;10.30;99.90;;;;;;5076485;28;20618;-75
2021/03/01 11:14:15;;;;;;;85.97;31.40;;;10.20;99.90;;;;;;5077639;28;20217;-76
2021/03/01 11:16:43;;;;;;;85.37;32.10;;;9.80;99.90;;;;;;5075130;28;20202;-76
2021/03/01 11:19:11;;;;;;;88.00;32.60;;;9.10;99.90;;;;;;5074261;28;20249;-76
2021/03/01 11:21:38;;;;;;;81.27;29.50;;;9.00;99.90;;;;;;5071619;28;20202;-76
2021/03/01 11:24:06;;;;;;;88.33;31.80;;;9.60;99.90;;;;;;5074434;28;20256;-76
2021/03/01 11:26:32;;;;;;;79.50;30.87;;;10.10;99.90;;;;;;5074778;28;20258;-76
2021/03/01 11:28:59;;;;;;;70.23;28.40;;;10.40;99.90;;;;;;5074722;28;20247;-75
2021/03/01 11:31:26;;;;;;;75.17;27.97;;;10.70;99.90;;;;;;5074478;28;20249;-76
2021/03/01 11:33:53;;;;;;;81.00;31.37;;;10.50;99.90;;;;;;5074614;28;20227;-76
2021/03/01 11:36:19;;;;;;;73.60;29.47;;;10.70;99.90;;;;;;5073522;28;20206;-77
2021/03/01 11:38:46;;;;;;;80.57;31.57;;;10.70;99.90;;;;;;5065950;28;20207;-76
2021/03/01 11:41:14;;;;;;;97.57;35.03;;;10.70;99.90;;;;;;5073561;28;20205;-76
2021/03/01 11:43:42;;;;;;;94.23;35.10;;;10.90;99.90;;;;;;5074191;28;20289;-76
2021/03/01 11:46:09;;;;;;;97.30;34.70;;;10.80;99.90;;;;;;5074432;28;20559;-76
2021/03/01 11:48:35;;;;;;;97.63;35.70;;;10.20;99.90;;;;;;5074540;28;20247;-76
2021/03/01 11:51:03;;;;;;;100.77;35.37;;;10.40;99.90;;;;;;5074454;28;20560;-76
2021/03/01 11:53:29;;;;;;;93.87;34.27;;;9.90;99.90;;;;;;5073837;28;20217;-76
2021/03/01 11:55:55;;;;;;;93.60;35.43;;;9.80;99.90;;;;;;5074236;28;20205;-76
2021/03/01 11:58:22;;;;;;;99.80;35.60;;;9.70;99.90;;;;;;5074209;28;20681;-76
2021/03/01 12:00:48;;;;;;;94.67;34.60;;;9.70;99.90;;;;;;5074281;28;20201;-76
2021/03/01 12:03:14;;;;;;;92.53;34.80;;;9.90;99.90;;;;;;5073938;28;20324;-76
2021/03/01 12:05:41;;;;;;;101.33;35.70;;;9.80;99.90;;;;;;5073081;28;20221;-76
2021/03/01 12:08:09;;;;;;;100.30;36.40;;;10.20;99.90;;;;;;5073928;28;20206;-76
2021/03/01 12:10:37;;;;;;;100.03;37.67;;;10.10;99.90;;;;;;5073819;28;20204;-76
2021/03/01 12:13:04;;;;;;;89.03;35.07;;;9.80;99.90;;;;;;5074158;28;20255;-76
2021/03/01 12:15:30;;;;;;;94.77;35.90;;;9.80;99.90;;;;;;5073436;28;20207;-76
2021/03/01 12:17:57;;;;;;;99.20;35.53;;;9.80;99.90;;;;;;5073141;28;20201;-76
2021/03/01 12:20:24;;;;;;;106.23;37.53;;;9.90;99.90;;;;;;5073206;28;20200;-76
2021/03/01 12:22:50;;;;;;;93.17;34.67;;;10.20;99.90;;;;;;5073804;28;20208;-76
2021/03/01 12:25:17;;;;;;;91.23;34.30;;;10.40;99.90;;;;;;5073693;28;20230;-76
2021/03/01 12:27:44;;;;;;;87.27;35.43;;;10.30;99.90;;;;;;5073797;28;20212;-76
2021/03/01 12:30:11;;;;;;;92.33;33.67;;;10.40;99.90;;;;;;5073273;28;20656;-76
2021/03/01 12:32:37;;;;;;;94.93;34.23;;;10.70;99.90;;;;;;5073659;28;20208;-76
2021/03/01 12:35:05;;;;;;;92.63;33.80;;;10.60;99.90;;;;;;5073159;28;20197;-76
2021/03/01 12:37:32;;;;;;;86.50;33.20;;;10.70;99.90;;;;;;5073178;28;20202;-76